Time;durP1;ratioP1;P1;durP2;ratioP2;P2;SDS_P1;SDS_P2;PMS_P1;PMS_P2;Temp;Humidity;BMP_temperature;BMP_pressure;BME280_temperature;BME280_humidity;BME280_pressure;Samples;Min_cycle;Max_cycle;Signal;HPM_P1;HPM_P2
2023/10/11 00:00:37;;;;;;;56.97;2.77;;;;;;;;;;5070286;28;20443;-73
2023/10/11 00:03:15;;;;;;;57.10;2.60;;;;;;;;;;5071135;28;20459;-73
2023/10/11 00:05:42;;;;;;;56.27;2.30;;;;;;;;;;5071135;28;20458;-73
2023/10/11 00:08:13;;;;;;;56.87;3.10;;;;;;;;;;5070658;28;20468;-73
2023/10/11 00:10:47;;;;;;;56.60;2.60;;;;;;;;;;5068985;28;20483;-73
2023/10/11 00:13:16;;;;;;;56.60;2.63;;;;;;;;;;5070851;28;20448;-73
2023/10/11 00:15:44;;;;;;;57.00;2.80;;;;;;;;;;5070931;28;20931;-73
2023/10/11 00:18:11;;;;;;;59.67;3.60;;;;;;;;;;5062467;28;20826;-73
2023/10/11 00:20:50;;;;;;;57.67;3.00;;;;;;;;;;5071197;28;20454;-73
2023/10/11 00:23:20;;;;;;;56.60;3.13;;;;;;;;;;5062548;28;20444;-73
2023/10/11 00:25:49;;;;;;;56.43;2.40;;;;;;;;;;5064874;28;20455;-73
2023/10/11 00:28:17;;;;;;;56.60;2.60;;;;;;;;;;5070571;28;20839;-73
2023/10/11 00:30:47;;;;;;;57.37;3.10;;;;;;;;;;5071061;28;20582;-73
2023/10/11 00:33:14;;;;;;;56.57;2.67;;;;;;;;;;5062446;28;20456;-73
2023/10/11 00:35:47;;;;;;;59.90;3.10;;;;;;;;;;5062384;28;20474;-73
2023/10/11 00:38:18;;;;;;;56.80;2.90;;;;;;;;;;5069676;28;20493;-73
2023/10/11 00:40:47;;;;;;;57.97;2.80;;;;;;;;;;5064582;28;20444;-73
2023/10/11 00:43:18;;;;;;;57.27;3.90;;;;;;;;;;5070518;28;20959;-73
2023/10/11 00:45:46;;;;;;;57.27;3.00;;;;;;;;;;5070900;28;20455;-73
2023/10/11 00:48:19;;;;;;;57.70;4.00;;;;;;;;;;5070611;28;21066;-73
2023/10/11 00:50:49;;;;;;;56.37;2.30;;;;;;;;;;5070579;28;20486;-73
2023/10/11 00:53:17;;;;;;;57.10;3.17;;;;;;;;;;5070407;28;20550;-73
2023/10/11 00:55:45;;;;;;;59.17;3.00;;;;;;;;;;5070777;28;20459;-73
2023/10/11 00:58:17;;;;;;;56.37;2.40;;;;;;;;;;5070354;28;20987;-73
2023/10/11 01:00:45;;;;;;;56.97;3.10;;;;;;;;;;5070695;28;20455;-73
2023/10/11 01:03:13;;;;;;;65.50;4.33;;;;;;;;;;5070345;28;20448;-73
2023/10/11 01:05:45;;;;;;;58.70;3.67;;;;;;;;;;5070305;28;20546;-73
2023/10/11 01:08:12;;;;;;;57.60;3.00;;;;;;;;;;5070440;28;20471;-73
2023/10/11 01:10:45;;;;;;;56.63;2.57;;;;;;;;;;5070468;28;21067;-73
2023/10/11 01:13:14;;;;;;;57.80;2.63;;;;;;;;;;5070377;28;20454;-73
2023/10/11 01:15:42;;;;;;;57.07;3.00;;;;;;;;;;5070198;28;20892;-73
2023/10/11 01:18:12;;;;;;;57.10;2.90;;;;;;;;;;5070468;28;20475;-73
2023/10/11 01:20:41;;;;;;;57.30;3.37;;;;;;;;;;5071246;28;20458;-73
2023/10/11 01:23:08;;;;;;;58.13;4.50;;;;;;;;;;5074209;28;20454;-73
2023/10/11 01:25:35;;;;;;;56.83;3.10;;;;;;;;;;5065701;28;20480;-73
2023/10/11 01:28:02;;;;;;;57.00;3.50;;;;;;;;;;5074074;28;21009;-74
2023/10/11 01:30:29;;;;;;;56.60;2.80;;;;;;;;;;5074301;28;21531;-73
2023/10/11 01:32:57;;;;;;;56.57;3.00;;;;;;;;;;5073889;28;20447;-73
2023/10/11 01:35:35;;;;;;;56.60;2.60;;;;;;;;;;5073866;28;20458;-73
2023/10/11 01:38:05;;;;;;;57.00;3.17;;;;;;;;;;5073733;28;20471;-73
2023/10/11 01:40:33;;;;;;;56.53;2.57;;;;;;;;;;5073724;28;20796;-73
2023/10/11 01:43:00;;;;;;;56.33;2.50;;;;;;;;;;5073493;28;20455;-73
2023/10/11 01:45:27;;;;;;;58.10;3.97;;;;;;;;;;5073656;28;20453;-73
2023/10/11 01:47:56;;;;;;;56.90;2.90;;;;;;;;;;5073961;28;20448;-73
2023/10/11 01:50:24;;;;;;;57.30;3.43;;;;;;;;;;5073388;28;20529;-73
2023/10/11 01:52:51;;;;;;;56.90;3.10;;;;;;;;;;5073530;28;20462;-73
2023/10/11 01:55:20;;;;;;;56.47;2.70;;;;;;;;;;5073507;28;20443;-73
2023/10/11 01:57:49;;;;;;;56.50;2.60;;;;;;;;;;5073617;28;20459;-73
2023/10/11 02:03:20;;;;;;;56.80;3.00;;;;;;;;;;5070877;28;20481;-73
2023/10/11 02:05:47;;;;;;;56.77;3.00;;;;;;;;;;5073481;28;20443;-73
2023/10/11 02:08:17;;;;;;;56.70;2.90;;;;;;;;;;5073092;28;20471;-73
2023/10/11 02:10:45;;;;;;;56.37;2.37;;;;;;;;;;5070224;28;20629;-71
2023/10/11 02:13:12;;;;;;;57.00;2.53;;;;;;;;;;5070006;28;20451;-71
2023/10/11 02:15:40;;;;;;;58.23;2.80;;;;;;;;;;5073321;28;20446;-71
2023/10/11 02:18:10;;;;;;;56.40;2.50;;;;;;;;;;5073169;28;20463;-71
2023/10/11 02:20:44;;;;;;;56.23;2.40;;;;;;;;;;5073355;28;20440;-71
2023/10/11 02:23:12;;;;;;;56.47;2.50;;;;;;;;;;5073249;28;20834;-71
2023/10/11 02:25:40;;;;;;;56.67;2.70;;;;;;;;;;5071507;28;20517;-71
2023/10/11 02:28:10;;;;;;;57.10;3.10;;;;;;;;;;5072996;28;21014;-71
2023/10/11 02:30:39;;;;;;;64.47;3.67;;;;;;;;;;5072713;28;20491;-71
2023/10/11 02:33:11;;;;;;;56.37;2.30;;;;;;;;;;5072426;28;20474;-71
2023/10/11 02:35:51;;;;;;;57.77;3.63;;;;;;;;;;5073100;28;20448;-71
2023/10/11 02:38:23;;;;;;;57.37;3.00;;;;;;;;;;5072849;28;20509;-71
2023/10/11 02:40:55;;;;;;;56.67;2.70;;;;;;;;;;5072952;28;20439;-71
2023/10/11 02:43:25;;;;;;;57.10;3.07;;;;;;;;;;5072721;28;20444;-71
2023/10/11 02:45:52;;;;;;;56.50;2.53;;;;;;;;;;5072724;28;20440;-71
2023/10/11 02:48:20;;;;;;;56.70;2.53;;;;;;;;;;5072748;28;20463;-71
2023/10/11 02:50:47;;;;;;;57.13;2.90;;;;;;;;;;5072552;28;20850;-71
2023/10/11 02:53:22;;;;;;;57.10;3.20;;;;;;;;;;5072437;28;20970;-71
2023/10/11 02:55:56;;;;;;;56.60;2.73;;;;;;;;;;5072485;28;20453;-71
2023/10/11 02:58:25;;;;;;;57.20;2.80;;;;;;;;;;5072438;28;20467;-71
2023/10/11 03:01:02;;;;;;;56.67;2.87;;;;;;;;;;5072597;28;20470;-71
2023/10/11 03:03:30;;;;;;;56.60;2.70;;;;;;;;;;5072366;28;20538;-71
2023/10/11 03:05:57;;;;;;;56.77;3.30;;;;;;;;;;5072316;28;20512;-72
2023/10/11 03:08:26;;;;;;;58.20;4.30;;;;;;;;;;5072111;28;20471;-71
2023/10/11 03:10:57;;;;;;;57.87;2.97;;;;;;;;;;5071900;28;21067;-72
2023/10/11 03:13:29;;;;;;;56.17;2.90;;;;;;;;;;5072283;28;20466;-71
2023/10/11 03:15:56;;;;;;;58.30;3.37;;;;;;;;;;5072353;28;20455;-71
2023/10/11 03:18:25;;;;;;;56.30;2.40;;;;;;;;;;5072206;28;20559;-71
2023/10/11 03:20:58;;;;;;;56.80;2.97;;;;;;;;;;5072175;28;20470;-71
2023/10/11 03:23:27;;;;;;;56.50;2.57;;;;;;;;;;5071887;28;20454;-71
2023/10/11 03:25:55;;;;;;;56.57;2.50;;;;;;;;;;5071491;28;20513;-71
2023/10/11 03:28:26;;;;;;;58.00;3.10;;;;;;;;;;5071647;28;20485;-71
2023/10/11 03:30:54;;;;;;;56.80;2.90;;;;;;;;;;5071933;28;20855;-71
2023/10/11 03:33:22;;;;;;;56.47;2.47;;;;;;;;;;5071752;28;20457;-71
2023/10/11 03:35:50;;;;;;;59.37;3.47;;;;;;;;;;5071817;28;20857;-71
2023/10/11 03:38:21;;;;;;;56.60;2.50;;;;;;;;;;5071548;28;20475;-71
2023/10/11 03:40:55;;;;;;;56.57;2.40;;;;;;;;;;5071650;28;20453;-71
2023/10/11 03:43:23;;;;;;;58.23;3.13;;;;;;;;;;5071834;28;20509;-71
2023/10/11 03:45:51;;;;;;;56.43;3.00;;;;;;;;;;5070862;28;20451;-71
2023/10/11 03:48:20;;;;;;;56.47;2.60;;;;;;;;;;5071297;28;21021;-71
2023/10/11 03:50:52;;;;;;;57.60;2.40;;;;;;;;;;5071489;28;20475;-71
2023/10/11 03:53:19;;;;;;;56.90;3.37;;;;;;;;;;5071581;28;20513;-71
2023/10/11 03:55:47;;;;;;;57.00;2.90;;;;;;;;;;5071286;28;20469;-72
2023/10/11 03:58:29;;;;;;;58.50;3.10;;;;;;;;;;5071297;28;20475;-71
2023/10/11 04:01:01;;;;;;;56.67;2.43;;;;;;;;;;5065085;28;20500;-71
2023/10/11 04:03:29;;;;;;;56.50;3.00;;;;;;;;;;5071579;28;20466;-71
2023/10/11 04:05:59;;;;;;;57.07;2.70;;;;;;;;;;5071425;28;20447;-71
2023/10/11 04:08:26;;;;;;;56.37;2.43;;;;;;;;;;5070971;28;20471;-71
2023/10/11 04:10:54;;;;;;;57.20;2.60;;;;;;;;;;5071064;28;20486;-71
2023/10/11 04:13:26;;;;;;;57.97;3.80;;;;;;;;;;5071058;28;20452;-71
2023/10/11 04:15:55;;;;;;;57.30;3.57;;;;;;;;;;5071323;28;20440;-72
2023/10/11 04:18:33;;;;;;;56.27;2.50;;;;;;;;;;5070961;28;20467;-72
2023/10/11 04:21:16;;;;;;;56.50;2.50;;;;;;;;;;5071019;28;20477;-72
2023/10/11 04:23:45;;;;;;;56.50;2.63;;;;;;;;;;5068986;28;21040;-72
2023/10/11 04:26:25;;;;;;;60.67;3.57;;;;;;;;;;5066313;28;20992;-72
2023/10/11 04:28:53;;;;;;;57.17;3.17;;;;;;;;;;5063985;28;20931;-72
2023/10/11 04:31:28;;;;;;;56.27;2.57;;;;;;;;;;5070831;28;20490;-72
2023/10/11 04:33:55;;;;;;;57.20;3.50;;;;;;;;;;5070837;28;20442;-72
2023/10/11 04:36:24;;;;;;;56.33;2.30;;;;;;;;;;5070815;28;20439;-72
2023/10/11 04:38:52;;;;;;;56.90;2.93;;;;;;;;;;5070808;28;20468;-72
2023/10/11 04:41:20;;;;;;;56.50;2.60;;;;;;;;;;5070870;28;20447;-72
2023/10/11 04:43:51;;;;;;;56.20;2.10;;;;;;;;;;5070885;28;20458;-72
2023/10/11 04:46:18;;;;;;;55.57;2.13;;;;;;;;;;5070875;28;20866;-72
2023/10/11 04:48:45;;;;;;;56.17;2.60;;;;;;;;;;5070642;28;20867;-73
2023/10/11 04:51:23;;;;;;;56.70;2.67;;;;;;;;;;5070408;28;20740;-73
2023/10/11 04:53:58;;;;;;;56.70;3.20;;;;;;;;;;5070660;28;20935;-73
2023/10/11 04:59:08;;;;;;;57.07;2.73;;;;;;;;;;5074376;28;20462;-73
2023/10/11 05:01:58;;;;;;;56.60;2.40;;;;;;;;;;5074835;28;20801;-73
2023/10/11 05:04:27;;;;;;;57.07;2.77;;;;;;;;;;5074466;28;20456;-73
2023/10/11 05:06:55;;;;;;;57.87;4.50;;;;;;;;;;5074854;28;20449;-73
2023/10/11 05:09:29;;;;;;;55.87;2.37;;;;;;;;;;5074592;28;20502;-73
2023/10/11 05:12:07;;;;;;;56.17;2.53;;;;;;;;;;5074792;28;20493;-73
2023/10/11 05:14:37;;;;;;;56.30;2.30;;;;;;;;;;5074715;28;20451;-72
2023/10/11 05:17:31;;;;;;;57.97;3.10;;;;;;;;;;5074783;28;20513;-71
2023/10/11 05:20:20;;;;;;;56.17;2.57;;;;;;;;;;5067738;28;20846;-71
2023/10/11 05:22:49;;;;;;;56.50;3.27;;;;;;;;;;5074272;28;20442;-72
2023/10/11 05:28:07;;;;;;;58.80;2.40;;;;;;;;;;5068232;28;20443;-72
2023/10/11 05:30:33;;;;;;;56.20;2.20;;;;;;;;;;5074124;28;20435;-72
2023/10/11 05:33:15;;;;;;;56.77;3.03;;;;;;;;;;5074344;28;20931;-72
2023/10/11 05:36:13;;;;;;;56.27;2.30;;;;;;;;;;5073964;28;20519;-72
2023/10/11 05:52:40;;;;;;;56.47;2.50;;;;;;;;;;5073571;28;20927;-72
2023/10/11 05:55:07;;;;;;;57.77;2.90;;;;;;;;;;5073476;28;20447;-72
2023/10/11 05:57:36;;;;;;;57.10;3.20;;;;;;;;;;5073483;28;20457;-72
2023/10/11 06:00:09;;;;;;;56.47;2.80;;;;;;;;;;5073605;28;20849;-72
2023/10/11 06:02:38;;;;;;;56.07;2.50;;;;;;;;;;5073526;28;20451;-73
2023/10/11 06:05:10;;;;;;;57.40;3.20;;;;;;;;;;5073795;28;20447;-72
2023/10/11 06:07:37;;;;;;;56.57;2.60;;;;;;;;;;5072191;28;20455;-72
2023/10/11 06:10:06;;;;;;;56.20;2.47;;;;;;;;;;5073314;28;20493;-72
2023/10/11 06:12:35;;;;;;;57.27;2.97;;;;;;;;;;5072863;28;20573;-72
2023/10/11 06:15:15;;;;;;;56.60;3.00;;;;;;;;;;5073586;28;20454;-72
2023/10/11 06:17:42;;;;;;;57.63;3.43;;;;;;;;;;5073480;28;20475;-72
2023/10/11 06:20:23;;;;;;;57.30;2.47;;;;;;;;;;5073113;28;20447;-72
2023/10/11 06:22:50;;;;;;;56.57;3.43;;;;;;;;;;5073228;28;20440;-72
2023/10/11 06:25:22;;;;;;;56.20;2.40;;;;;;;;;;5069943;28;20459;-72
2023/10/11 06:30:35;;;;;;;56.33;3.07;;;;;;;;;;5065624;28;20443;-72
2023/10/11 06:33:05;;;;;;;56.37;2.47;;;;;;;;;;5072999;28;20493;-72
2023/10/11 06:35:36;;;;;;;58.27;2.60;;;;;;;;;;5073076;28;20490;-72
2023/10/11 06:38:03;;;;;;;56.17;2.50;;;;;;;;;;5072618;28;20990;-72
2023/10/11 06:40:38;;;;;;;56.97;2.50;;;;;;;;;;5064425;28;20451;-73
2023/10/11 06:43:07;;;;;;;60.50;2.60;;;;;;;;;;5072597;28;20966;-73
2023/10/11 06:45:35;;;;;;;57.00;3.17;;;;;;;;;;5072564;28;20899;-73
2023/10/11 06:48:06;;;;;;;56.50;2.20;;;;;;;;;;5072880;28;20827;-73
2023/10/11 06:50:36;;;;;;;56.80;3.37;;;;;;;;;;5071272;28;20995;-73
2023/10/11 06:53:06;;;;;;;56.17;2.63;;;;;;;;;;5066136;28;20557;-73
2023/10/11 06:55:35;;;;;;;57.47;2.40;;;;;;;;;;5072172;28;20496;-73
2023/10/11 06:58:04;;;;;;;56.97;2.53;;;;;;;;;;5072438;28;20490;-73
2023/10/11 07:00:37;;;;;;;56.60;2.53;;;;;;;;;;5072423;28;20447;-73
2023/10/11 07:03:09;;;;;;;56.30;2.30;;;;;;;;;;5067453;28;20441;-73
2023/10/11 07:05:46;;;;;;;58.90;3.43;;;;;;;;;;5070143;28;20956;-73
2023/10/11 07:08:17;;;;;;;56.77;3.20;;;;;;;;;;5063917;28;20475;-73
2023/10/11 07:10:45;;;;;;;55.77;2.20;;;;;;;;;;5069708;28;20447;-73
2023/10/11 07:13:13;;;;;;;56.50;2.60;;;;;;;;;;5066903;28;20526;-73
2023/10/11 07:15:42;;;;;;;56.77;3.93;;;;;;;;;;5072076;28;20828;-73
2023/10/11 07:18:11;;;;;;;56.80;3.03;;;;;;;;;;5071781;28;20517;-73
2023/10/11 07:20:58;;;;;;;59.27;3.60;;;;;;;;;;5070270;28;20458;-73
2023/10/11 07:23:35;;;;;;;56.83;2.97;;;;;;;;;;5068542;28;20443;-73
2023/10/11 07:26:22;;;;;;;56.27;2.30;;;;;;;;;;5056579;28;20541;-73
2023/10/11 07:28:50;;;;;;;57.47;3.63;;;;;;;;;;5071612;28;20461;-73
2023/10/11 07:31:19;;;;;;;56.70;2.80;;;;;;;;;;5071794;28;20526;-73
2023/10/11 07:33:50;;;;;;;57.50;3.20;;;;;;;;;;5072279;28;20446;-74
2023/10/11 07:36:18;;;;;;;56.90;2.77;;;;;;;;;;5071833;28;20483;-73
2023/10/11 07:38:54;;;;;;;56.60;2.93;;;;;;;;;;5071811;28;20467;-73
2023/10/11 07:41:22;;;;;;;56.47;2.73;;;;;;;;;;5072033;28;20450;-74
2023/10/11 07:43:49;;;;;;;56.40;2.50;;;;;;;;;;5071822;28;20467;-74
2023/10/11 07:46:17;;;;;;;56.10;2.40;;;;;;;;;;5071936;28;20865;-74
2023/10/11 07:48:45;;;;;;;56.97;2.70;;;;;;;;;;5071480;28;20467;-74
2023/10/11 07:51:12;;;;;;;56.70;3.07;;;;;;;;;;5071571;28;20452;-73
2023/10/11 07:53:41;;;;;;;56.17;2.30;;;;;;;;;;5071470;28;20499;-73
2023/10/11 07:56:09;;;;;;;56.83;2.43;;;;;;;;;;5071999;28;20477;-73
2023/10/11 07:58:36;;;;;;;56.53;3.10;;;;;;;;;;5071520;28;20490;-73
2023/10/11 08:01:15;;;;;;;58.23;2.50;;;;;;;;;;5071385;28;21200;-73
2023/10/11 08:03:44;;;;;;;56.30;2.50;;;;;;;;;;5071649;28;20534;-73
2023/10/11 08:06:14;;;;;;;56.60;2.97;;;;;;;;;;5071860;28;20452;-73
2023/10/11 08:08:43;;;;;;;57.10;4.43;;;;;;;;;;5071763;28;20482;-73
2023/10/11 08:11:20;;;;;;;57.57;2.80;;;;;;;;;;5071636;28;20513;-73
2023/10/11 08:13:48;;;;;;;58.63;3.10;;;;;;;;;;5071635;28;20490;-73
2023/10/11 08:16:18;;;;;;;56.40;2.67;;;;;;;;;;5071568;28;20841;-73
2023/10/11 08:18:46;;;;;;;56.40;2.53;;;;;;;;;;5071168;28;20467;-71
2023/10/11 08:21:14;;;;;;;57.53;3.93;;;;;;;;;;5071153;28;20481;-72
2023/10/11 08:23:44;;;;;;;57.90;2.63;;;;;;;;;;5068202;28;20795;-72
2023/10/11 08:26:14;;;;;;;57.17;2.60;;;;;;;;;;5064893;28;20975;-72
2023/10/11 08:28:47;;;;;;;56.47;2.50;;;;;;;;;;5071233;28;20478;-72
2023/10/11 08:31:21;;;;;;;57.87;4.10;;;;;;;;;;5070985;28;20720;-72
2023/10/11 08:33:49;;;;;;;57.77;2.50;;;;;;;;;;5070933;28;20491;-73
2023/10/11 08:36:18;;;;;;;56.70;2.63;;;;;;;;;;5071239;28;20477;-72
2023/10/11 08:38:45;;;;;;;58.83;3.10;;;;;;;;;;5071353;28;20462;-72
2023/10/11 08:41:15;;;;;;;56.30;2.50;;;;;;;;;;5071239;28;20454;-73
2023/10/11 08:43:42;;;;;;;57.07;2.30;;;;;;;;;;5071211;28;20473;-73
2023/10/11 08:46:11;;;;;;;56.87;3.13;;;;;;;;;;5071326;28;20448;-73
2023/10/11 08:48:39;;;;;;;56.30;2.40;;;;;;;;;;5071188;28;20878;-72
2023/10/11 08:51:10;;;;;;;56.80;2.60;;;;;;;;;;5071199;28;20447;-73
2023/10/11 08:53:40;;;;;;;58.60;2.57;;;;;;;;;;5071085;28;20855;-73
2023/10/11 08:56:09;;;;;;;56.40;2.30;;;;;;;;;;5071020;28;20451;-73
2023/10/11 08:58:36;;;;;;;57.17;3.20;;;;;;;;;;5070869;28;20471;-73
2023/10/11 09:01:03;;;;;;;57.60;3.17;;;;;;;;;;5071154;28;20454;-73
2023/10/11 09:03:39;;;;;;;56.87;2.60;;;;;;;;;;5070995;28;20454;-73
2023/10/11 09:06:07;;;;;;;56.90;2.70;;;;;;;;;;5071031;28;20912;-73
2023/10/11 09:08:35;;;;;;;57.87;3.13;;;;;;;;;;5070650;28;20484;-73
2023/10/11 09:11:28;;;;;;;56.40;2.20;;;;;;;;;;5071010;28;20451;-73
2023/10/11 09:14:10;;;;;;;57.43;3.53;;;;;;;;;;5071263;28;20568;-73
2023/10/11 09:16:37;;;;;;;56.70;2.60;;;;;;;;;;5070762;28;20451;-74
2023/10/11 09:19:06;;;;;;;56.40;2.43;;;;;;;;;;5070567;28;20987;-74
2023/10/11 09:21:35;;;;;;;56.47;2.40;;;;;;;;;;5070485;28;20521;-74
2023/10/11 09:24:03;;;;;;;56.87;2.63;;;;;;;;;;5071043;28;20444;-74
2023/10/11 09:26:35;;;;;;;56.80;2.47;;;;;;;;;;5070541;28;20558;-74
2023/10/11 09:29:04;;;;;;;56.37;2.30;;;;;;;;;;5070630;28;20834;-74
2023/10/11 09:31:32;;;;;;;56.70;2.30;;;;;;;;;;5070433;28;20447;-75
2023/10/11 09:34:02;;;;;;;57.70;3.40;;;;;;;;;;5062330;28;20487;-75
2023/10/11 09:36:29;;;;;;;56.70;2.40;;;;;;;;;;5070598;28;20963;-73
2023/10/11 09:38:57;;;;;;;56.20;2.43;;;;;;;;;;5070337;28;20553;-74
2023/10/11 09:41:25;;;;;;;56.87;2.70;;;;;;;;;;5070811;28;20886;-73
2023/10/11 09:43:57;;;;;;;56.30;2.40;;;;;;;;;;5074138;28;20832;-74
2023/10/11 09:46:29;;;;;;;57.07;2.47;;;;;;;;;;5074268;28;20447;-74
2023/10/11 09:48:56;;;;;;;56.20;2.10;;;;;;;;;;5080570;28;20497;-74
2023/10/11 09:51:24;;;;;;;55.87;1.97;;;;;;;;;;5092703;28;20450;-74
2023/10/11 09:53:53;;;;;;;56.43;2.50;;;;;;;;;;5091840;28;20479;-73
2023/10/11 09:56:36;;;;;;;55.83;1.90;;;;;;;;;;5090816;28;20447;-74
2023/10/11 09:59:19;;;;;;;57.27;3.10;;;;;;;;;;5089119;28;20490;-74
2023/10/11 10:01:52;;;;;;;57.03;2.83;;;;;;;;;;5092021;28;20467;-74
2023/10/11 10:04:44;;;;;;;55.77;2.40;;;;;;;;;;5094333;28;20443;-74
2023/10/11 10:07:14;;;;;;;55.70;1.80;;;;;;;;;;5093719;28;20455;-74
2023/10/11 10:09:52;;;;;;;56.40;2.80;;;;;;;;;;5093403;28;20547;-72
2023/10/11 10:12:22;;;;;;;57.30;1.90;;;;;;;;;;5092518;28;20455;-73
2023/10/11 10:15:02;;;;;;;56.90;2.60;;;;;;;;;;5093423;28;20477;-72
2023/10/11 10:17:29;;;;;;;55.60;2.00;;;;;;;;;;5093494;28;20452;-73
2023/10/11 10:20:00;;;;;;;55.10;1.70;;;;;;;;;;5093487;28;20471;-73
2023/10/11 10:22:31;;;;;;;55.80;2.40;;;;;;;;;;5093602;28;20444;-73
2023/10/11 10:25:18;;;;;;;55.83;2.87;;;;;;;;;;5086662;28;20448;-73
2023/10/11 10:27:46;;;;;;;55.70;2.10;;;;;;;;;;5084351;28;20962;-73
2023/10/11 10:30:21;;;;;;;56.40;2.30;;;;;;;;;;5071400;28;20447;-73
2023/10/11 10:33:07;;;;;;;55.40;2.10;;;;;;;;;;5074509;28;20486;-74
2023/10/11 10:35:37;;;;;;;55.63;2.53;;;;;;;;;;5074559;28;20455;-74
2023/10/11 10:38:09;;;;;;;55.87;2.50;;;;;;;;;;5066455;28;20498;-74
2023/10/11 10:40:37;;;;;;;55.40;2.23;;;;;;;;;;5073580;28;20475;-74
2023/10/11 10:43:27;;;;;;;55.47;2.00;;;;;;;;;;5073626;28;20520;-74
2023/10/11 10:45:59;;;;;;;55.00;2.30;;;;;;;;;;5073155;28;20783;-74
2023/10/11 10:48:31;;;;;;;55.10;1.90;;;;;;;;;;5073017;28;20467;-73
2023/10/11 10:51:04;;;;;;;54.90;1.77;;;;;;;;;;5072986;28;20957;-74
2023/10/11 10:53:37;;;;;;;55.47;2.07;;;;;;;;;;5072317;28;20498;-74
2023/10/11 10:56:04;;;;;;;55.60;2.40;;;;;;;;;;5072146;28;20440;-74
2023/10/11 10:58:30;;;;;;;55.07;2.00;;;;;;;;;;5076857;28;20506;-74
2023/10/11 11:00:59;;;;;;;56.07;2.40;;;;;;;;;;5073858;28;20456;-74
2023/10/11 11:03:31;;;;;;;55.60;2.93;;;;;;;;;;5072769;28;20443;-74
2023/10/11 11:05:59;;;;;;;55.47;2.73;;;;;;;;;;5073059;28;20478;-74
2023/10/11 11:08:27;;;;;;;55.07;1.90;;;;;;;;;;5072061;28;20474;-74
2023/10/11 11:11:18;;;;;;;55.07;2.10;;;;;;;;;;5072178;28;20535;-75
2023/10/11 11:13:45;;;;;;;54.57;1.70;;;;;;;;;;5072231;28;20549;-75
2023/10/11 11:16:17;;;;;;;55.63;2.30;;;;;;;;;;5072178;28;20459;-75
2023/10/11 11:18:44;;;;;;;55.07;2.03;;;;;;;;;;5072212;28;20507;-75
2023/10/11 11:21:19;;;;;;;55.90;2.17;;;;;;;;;;5072508;28;20443;-75
2023/10/11 11:23:46;;;;;;;55.63;2.30;;;;;;;;;;5072758;28;20451;-75
2023/10/11 11:26:16;;;;;;;55.87;1.90;;;;;;;;;;5072180;28;20463;-75
2023/10/11 11:28:43;;;;;;;54.57;1.97;;;;;;;;;;5068162;28;20476;-75
2023/10/11 11:31:13;;;;;;;54.87;2.47;;;;;;;;;;5072043;28;20535;-74
2023/10/11 11:36:56;;;;;;;54.90;2.10;;;;;;;;;;5089045;28;20569;-73
2023/10/11 11:39:26;;;;;;;55.60;3.00;;;;;;;;;;5082401;28;20492;-74
2023/10/11 11:41:55;;;;;;;55.03;2.43;;;;;;;;;;5087341;28;20477;-74
2023/10/11 11:44:21;;;;;;;54.40;1.90;;;;;;;;;;5088302;28;20453;-75
2023/10/11 11:46:49;;;;;;;54.60;2.20;;;;;;;;;;5088371;28;20492;-75
2023/10/11 11:49:17;;;;;;;55.17;2.37;;;;;;;;;;5088181;28;20462;-75
2023/10/11 11:51:45;;;;;;;54.60;2.13;;;;;;;;;;5088329;28;20857;-76
2023/10/11 11:54:17;;;;;;;54.60;1.90;;;;;;;;;;5088323;28;20455;-76
2023/10/11 11:56:45;;;;;;;54.80;1.90;;;;;;;;;;5088026;28;20924;-75
2023/10/11 11:59:17;;;;;;;55.17;2.43;;;;;;;;;;5087954;28;20911;-75
2023/10/11 12:01:44;;;;;;;54.60;2.33;;;;;;;;;;5088022;28;20450;-74
2023/10/11 12:04:11;;;;;;;54.23;1.90;;;;;;;;;;5088258;28;20458;-74
2023/10/11 12:06:38;;;;;;;59.23;4.20;;;;;;;;;;5088205;28;20452;-74
2023/10/11 12:09:06;;;;;;;54.87;2.30;;;;;;;;;;5087554;28;20966;-74
2023/10/11 12:11:33;;;;;;;54.07;2.47;;;;;;;;;;5088210;28;20465;-74
2023/10/11 12:14:03;;;;;;;55.10;2.53;;;;;;;;;;5087600;28;20456;-74
2023/10/11 12:16:31;;;;;;;54.57;2.40;;;;;;;;;;5087616;28;20576;-75
2023/10/11 12:18:59;;;;;;;54.70;1.90;;;;;;;;;;5087541;28;20663;-74
2023/10/11 12:21:27;;;;;;;55.07;2.07;;;;;;;;;;5087695;28;20451;-74
2023/10/11 12:23:54;;;;;;;54.27;2.60;;;;;;;;;;5087697;28;20457;-74
2023/10/11 12:26:25;;;;;;;54.40;2.63;;;;;;;;;;5087512;28;20442;-74
2023/10/11 12:28:52;;;;;;;57.60;3.23;;;;;;;;;;5087210;28;20504;-75
2023/10/11 12:31:19;;;;;;;55.07;2.00;;;;;;;;;;5087099;28;20502;-75
2023/10/11 12:33:46;;;;;;;55.13;3.10;;;;;;;;;;5087557;28;20449;-75
2023/10/11 12:36:16;;;;;;;54.50;2.17;;;;;;;;;;5087098;28;20492;-74
2023/10/11 12:38:43;;;;;;;54.10;1.90;;;;;;;;;;5087359;28;20481;-74
2023/10/11 12:41:14;;;;;;;54.37;2.40;;;;;;;;;;5087196;28;20457;-74
2023/10/11 12:43:45;;;;;;;55.10;2.50;;;;;;;;;;5087276;28;20894;-74
2023/10/11 12:46:12;;;;;;;54.57;2.00;;;;;;;;;;5084550;28;20997;-74
2023/10/11 12:48:39;;;;;;;54.30;1.90;;;;;;;;;;5073627;28;20474;-74
2023/10/11 12:51:06;;;;;;;54.00;1.90;;;;;;;;;;5073529;28;20443;-74
2023/10/11 12:53:35;;;;;;;54.97;2.70;;;;;;;;;;5073786;28;20481;-74
2023/10/11 12:56:02;;;;;;;54.10;2.00;;;;;;;;;;5073432;28;20482;-75
2023/10/11 12:58:39;;;;;;;54.20;2.10;;;;;;;;;;5073672;28;20816;-75
2023/10/11 13:01:11;;;;;;;54.67;2.27;;;;;;;;;;5073562;28;20453;-75
2023/10/11 13:03:38;;;;;;;54.97;2.33;;;;;;;;;;5073230;28;20963;-75
2023/10/11 13:06:09;;;;;;;54.43;2.50;;;;;;;;;;5073317;28;20809;-75
2023/10/11 13:08:38;;;;;;;54.90;2.00;;;;;;;;;;5073085;28;20474;-74
2023/10/11 13:11:10;;;;;;;54.87;1.90;;;;;;;;;;5073333;28;20485;-74
2023/10/11 13:13:37;;;;;;;53.77;1.80;;;;;;;;;;5073300;28;20461;-75
2023/10/11 13:16:06;;;;;;;54.70;2.00;;;;;;;;;;5073333;28;20584;-74
2023/10/11 13:18:37;;;;;;;54.40;1.83;;;;;;;;;;5073202;28;20486;-74
2023/10/11 13:21:05;;;;;;;54.20;2.30;;;;;;;;;;5072847;28;20931;-74
2023/10/11 13:23:34;;;;;;;55.50;2.73;;;;;;;;;;5073416;28;20451;-74
2023/10/11 13:26:07;;;;;;;55.40;2.10;;;;;;;;;;5073025;28;20534;-74
2023/10/11 13:28:34;;;;;;;54.50;2.00;;;;;;;;;;5072809;28;20525;-74
2023/10/11 13:31:02;;;;;;;54.67;2.40;;;;;;;;;;5072821;28;20447;-75
2023/10/11 13:33:30;;;;;;;54.80;2.53;;;;;;;;;;5072804;28;20552;-74
2023/10/11 13:35:59;;;;;;;55.57;2.13;;;;;;;;;;5072378;28;20546;-74
2023/10/11 13:38:30;;;;;;;55.50;2.30;;;;;;;;;;5072545;28;20473;-75
2023/10/11 13:40:58;;;;;;;54.93;1.73;;;;;;;;;;5072503;28;20461;-75
2023/10/11 13:43:26;;;;;;;54.73;1.73;;;;;;;;;;5072659;28;20484;-75
2023/10/11 13:45:56;;;;;;;55.23;2.33;;;;;;;;;;5072518;28;20452;-75
2023/10/11 13:48:26;;;;;;;56.33;2.40;;;;;;;;;;5072109;28;20557;-75
2023/10/11 13:50:53;;;;;;;54.97;1.93;;;;;;;;;;5072535;28;20539;-75
2023/10/11 13:53:24;;;;;;;54.53;1.80;;;;;;;;;;5072146;28;20450;-75
2023/10/11 13:55:51;;;;;;;55.33;2.10;;;;;;;;;;5072203;28;20852;-75
2023/10/11 13:58:19;;;;;;;55.37;2.33;;;;;;;;;;5071149;28;20478;-75
2023/10/11 14:01:05;;;;;;;54.93;2.13;;;;;;;;;;5071995;28;20455;-75
2023/10/11 14:03:45;;;;;;;55.17;2.03;;;;;;;;;;5072234;28;20453;-75
2023/10/11 14:06:28;;;;;;;55.07;2.23;;;;;;;;;;5072154;28;20448;-75
2023/10/11 14:08:57;;;;;;;54.57;1.80;;;;;;;;;;5071758;28;20474;-75
2023/10/11 14:11:24;;;;;;;56.73;2.23;;;;;;;;;;5071631;28;20457;-75
2023/10/11 14:13:51;;;;;;;54.70;1.97;;;;;;;;;;5072031;28;20446;-76
2023/10/11 14:16:21;;;;;;;55.03;2.13;;;;;;;;;;5071857;28;20496;-75
2023/10/11 14:18:50;;;;;;;55.83;2.07;;;;;;;;;;5071647;28;20473;-75
2023/10/11 14:21:19;;;;;;;54.90;1.80;;;;;;;;;;5071706;28;20485;-75
2023/10/11 14:23:48;;;;;;;55.10;2.00;;;;;;;;;;5071651;28;20510;-75
2023/10/11 14:26:16;;;;;;;55.50;1.90;;;;;;;;;;5071553;28;20936;-75
2023/10/11 14:28:44;;;;;;;54.93;2.03;;;;;;;;;;5071400;28;20462;-75
2023/10/11 14:31:17;;;;;;;54.97;2.13;;;;;;;;;;5071534;28;20449;-75
2023/10/11 14:33:45;;;;;;;55.00;1.60;;;;;;;;;;5071779;28;20450;-75
2023/10/11 14:36:12;;;;;;;55.17;1.83;;;;;;;;;;5070971;28;20489;-75
2023/10/11 14:38:39;;;;;;;55.50;2.20;;;;;;;;;;5071226;28;20465;-75
2023/10/11 14:41:10;;;;;;;55.43;1.90;;;;;;;;;;5071165;28;20445;-75
2023/10/11 14:43:38;;;;;;;56.07;1.97;;;;;;;;;;5071361;28;20901;-75
2023/10/11 14:46:07;;;;;;;55.23;2.10;;;;;;;;;;5071235;28;20453;-75
2023/10/11 14:48:35;;;;;;;55.20;1.53;;;;;;;;;;5070989;28;20961;-75
2023/10/11 14:51:06;;;;;;;55.57;1.97;;;;;;;;;;5070964;28;20452;-75
2023/10/11 14:53:34;;;;;;;55.47;1.80;;;;;;;;;;5071148;28;20794;-75
2023/10/11 14:56:03;;;;;;;55.60;2.00;;;;;;;;;;5071111;28;20490;-75
2023/10/11 14:58:31;;;;;;;54.90;1.60;;;;;;;;;;5071057;28;20475;-75
2023/10/11 15:01:05;;;;;;;55.50;2.00;;;;;;;;;;5071025;28;20452;-75
2023/10/11 15:03:32;;;;;;;55.20;1.73;;;;;;;;;;5071175;28;20448;-75
2023/10/11 15:05:59;;;;;;;55.80;2.30;;;;;;;;;;5071102;28;20471;-75
2023/10/11 15:08:26;;;;;;;55.67;2.07;;;;;;;;;;5071117;28;20478;-75
2023/10/11 15:10:53;;;;;;;55.67;2.07;;;;;;;;;;5070660;28;20452;-75
2023/10/11 15:13:21;;;;;;;55.40;2.03;;;;;;;;;;5070834;28;20456;-75
2023/10/11 15:15:49;;;;;;;55.90;2.13;;;;;;;;;;5070776;28;20574;-75
2023/10/11 15:18:17;;;;;;;55.53;1.70;;;;;;;;;;5063028;28;20922;-75